Time;durP1;ratioP1;P1;durP2;ratioP2;P2;SDS_P1;SDS_P2;PMS_P1;PMS_P2;Temp;Humidity;BMP_temperature;BMP_pressure;BME280_temperature;BME280_humidity;BME280_pressure;Samples;Min_cycle;Max_cycle;Signal;HPM_P1;HPM_P2
2021/07/01 00:00:05;;;;;;;16.52;11.25;;;;;;;14.76;80.19;100816.25;4972952;28;20085;-77
2021/07/01 00:02:31;;;;;;;15.32;10.98;;;;;;;14.75;79.76;100823.00;4993911;28;20093;-77
2021/07/01 00:04:56;;;;;;;19.85;11.48;;;;;;;14.70;80.04;100812.75;4991137;28;20030;-77
2021/07/01 00:07:22;;;;;;;18.40;11.68;;;;;;;14.69;79.88;100816.69;4986172;28;20038;-77
2021/07/01 00:09:47;;;;;;;14.88;10.15;;;;;;;14.66;80.06;100816.50;4998370;28;20042;-77
2021/07/01 00:12:13;;;;;;;15.73;10.57;;;;;;;14.60;79.97;100814.94;4981372;28;20029;-77
2021/07/01 00:14:38;;;;;;;15.25;11.10;;;;;;;14.58;80.09;100815.25;4992904;28;20041;-77
2021/07/01 00:17:04;;;;;;;14.88;11.50;;;;;;;14.56;80.13;100811.94;4978539;28;20031;-77
2021/07/01 00:19:29;;;;;;;17.17;11.15;;;;;;;14.52;80.13;100813.72;4976972;28;20035;-77
2021/07/01 00:21:55;;;;;;;18.13;11.60;;;;;;;14.48;80.28;100807.06;4993187;28;20030;-77
2021/07/01 00:24:21;;;;;;;15.23;11.38;;;;;;;14.46;80.26;100812.97;4981511;28;20026;-77
2021/07/01 00:26:46;;;;;;;16.17;11.68;;;;;;;14.44;79.94;100820.03;4989325;28;20085;-77
2021/07/01 00:29:12;;;;;;;14.07;11.23;;;;;;;14.40;80.43;100811.44;4964307;28;20096;-77
2021/07/01 00:31:37;;;;;;;17.02;11.25;;;;;;;14.39;80.28;100817.34;4981146;28;20034;-77
2021/07/01 00:34:03;;;;;;;17.90;11.23;;;;;;;14.35;80.31;100808.75;4983859;28;20081;-77
2021/07/01 00:36:28;;;;;;;16.15;10.82;;;;;;;14.31;80.38;100802.94;4981170;28;20034;-77
2021/07/01 00:38:54;;;;;;;15.57;10.98;;;;;;;14.28;80.52;100813.94;4997127;28;20081;-77
2021/07/01 00:41:19;;;;;;;16.02;10.85;;;;;;;14.23;80.31;100817.66;4998583;28;20034;-77
2021/07/01 00:43:45;;;;;;;14.25;10.98;;;;;;;14.21;80.34;100819.13;4981756;28;20042;-77
2021/07/01 00:46:10;;;;;;;16.95;11.57;;;;;;;14.20;80.45;100818.28;4978892;28;20511;-77
2021/07/01 00:48:36;;;;;;;15.45;10.68;;;;;;;14.19;80.55;100813.00;4991672;28;20049;-77
2021/07/01 00:51:02;;;;;;;17.30;11.88;;;;;;;14.16;80.43;100806.06;4978881;28;20121;-77
2021/07/01 00:53:28;;;;;;;18.45;11.55;;;;;;;14.15;80.22;100810.03;4978624;28;20054;-77
2021/07/01 00:55:54;;;;;;;18.98;12.80;;;;;;;14.11;80.46;100808.16;4977305;28;20030;-76
2021/07/01 00:58:19;;;;;;;17.33;11.65;;;;;;;14.08;80.46;100816.00;4977194;28;20059;-77
2021/07/01 01:03:13;;;;;;;16.92;11.48;;;;;;;14.04;80.67;100808.53;4981866;28;20081;-77
2021/07/01 01:05:39;;;;;;;17.23;12.07;;;;;;;14.01;80.92;100804.44;4997725;28;20042;-77
2021/07/01 01:08:04;;;;;;;19.58;12.63;;;;;;;14.00;80.71;100802.75;4960144;28;20078;-77
2021/07/01 01:10:30;;;;;;;18.70;12.60;;;;;;;13.96;80.66;100801.75;4971874;28;20162;-77
2021/07/01 01:12:56;;;;;;;15.95;11.93;;;;;;;13.94;80.82;100806.78;4987166;28;20022;-77
2021/07/01 01:15:21;;;;;;;16.45;12.07;;;;;;;13.91;80.92;100798.22;4996402;28;20549;-77
2021/07/01 01:17:47;;;;;;;18.88;12.18;;;;;;;13.88;80.69;100798.84;4975946;28;20035;-77
2021/07/01 01:20:13;;;;;;;16.58;12.25;;;;;;;13.85;80.59;100800.28;4968557;28;20034;-77
2021/07/01 01:22:39;;;;;;;16.88;11.27;;;;;;;13.83;80.95;100796.97;4991380;28;20034;-77
2021/07/01 01:25:05;;;;;;;16.63;11.55;;;;;;;13.83;80.80;100802.56;4978208;28;20561;-77
2021/07/01 01:27:31;;;;;;;16.48;11.55;;;;;;;13.81;81.02;100800.06;4975039;28;20487;-77
2021/07/01 01:29:56;;;;;;;17.67;11.98;;;;;;;13.79;80.85;100801.50;4977944;28;20034;-77
2021/07/01 01:32:22;;;;;;;15.55;11.70;;;;;;;13.79;80.72;100807.06;4976739;28;20026;-76
2021/07/01 01:34:48;;;;;;;14.98;11.05;;;;;;;13.76;80.78;100811.34;4980003;28;20033;-77
2021/07/01 01:37:13;;;;;;;17.48;12.10;;;;;;;13.71;80.83;100821.78;4993926;28;20495;-77
2021/07/01 01:39:39;;;;;;;17.60;12.38;;;;;;;13.71;80.82;100810.63;4954263;28;20078;-77
2021/07/01 01:42:04;;;;;;;17.80;11.45;;;;;;;13.68;81.04;100806.47;4963850;28;20027;-77
2021/07/01 01:44:30;;;;;;;16.45;11.80;;;;;;;13.66;80.92;100813.50;4996926;28;20030;-77
2021/07/01 01:46:55;;;;;;;20.40;12.65;;;;;;;13.64;81.09;100803.44;4995093;28;20034;-77
2021/07/01 01:49:21;;;;;;;19.17;12.65;;;;;;;13.64;81.26;100805.41;4991843;28;20085;-77
2021/07/01 01:51:46;;;;;;;19.85;12.77;;;;;;;13.61;80.82;100809.66;4950770;28;20395;-77
2021/07/01 01:54:12;;;;;;;19.10;12.95;;;;;;;13.56;80.99;100815.31;4972411;28;20180;-77
2021/07/01 01:56:45;;;;;;;18.88;12.95;;;;;;;13.56;81.21;100820.06;4971076;28;20091;-77
2021/07/01 01:59:10;;;;;;;20.90;12.07;;;;;;;13.54;81.13;100811.16;4979616;28;20065;-77
2021/07/01 02:01:36;;;;;;;17.17;12.38;;;;;;;13.52;81.18;100810.66;4985969;28;20600;-76
2021/07/01 02:04:03;;;;;;;16.48;12.23;;;;;;;13.50;81.31;100810.16;4979725;28;20026;-77
2021/07/01 02:06:28;;;;;;;18.08;12.10;;;;;;;13.49;81.47;100808.50;5011921;28;20053;-76
2021/07/01 02:08:54;;;;;;;19.05;12.00;;;;;;;13.48;81.45;100812.41;4992288;28;20131;-76
2021/07/01 02:11:19;;;;;;;19.40;12.50;;;;;;;13.47;80.89;100813.56;5007262;28;20475;-76
2021/07/01 02:13:45;;;;;;;18.67;12.75;;;;;;;13.43;81.27;100810.56;4976002;28;20761;-76
2021/07/01 02:16:11;;;;;;;15.95;11.35;;;;;;;13.42;81.33;100811.66;4982757;28;20030;-77
2021/07/01 02:18:36;;;;;;;19.52;12.38;;;;;;;13.40;81.50;100808.38;4979568;28;20101;-76
2021/07/01 02:21:03;;;;;;;17.95;12.18;;;;;;;13.38;81.54;100807.84;5011914;28;20434;-76
2021/07/01 02:23:29;;;;;;;18.75;12.48;;;;;;;13.36;81.50;100804.53;4986540;28;20030;-77
2021/07/01 02:25:55;;;;;;;18.63;12.73;;;;;;;13.35;81.45;100802.88;5011251;28;20037;-77
2021/07/01 02:28:20;;;;;;;19.42;12.18;;;;;;;13.34;81.47;100798.41;5000335;28;20025;-77
2021/07/01 02:30:46;;;;;;;19.55;11.95;;;;;;;13.30;81.48;100797.38;4953088;28;20426;-77
2021/07/01 02:33:11;;;;;;;15.45;10.90;;;;;;;13.26;81.37;100801.91;4982648;28;20375;-76
2021/07/01 02:35:37;;;;;;;17.52;11.50;;;;;;;13.26;81.33;100804.69;4994756;28;20398;-77
2021/07/01 02:38:02;;;;;;;19.48;12.30;;;;;;;13.24;81.47;100796.63;4970560;28;20391;-76
2021/07/01 02:40:28;;;;;;;18.33;12.05;;;;;;;13.22;81.47;100795.25;4998932;28;20038;-76
2021/07/01 02:42:53;;;;;;;17.90;11.68;;;;;;;13.19;81.44;100805.88;4996227;28;20030;-76
2021/07/01 02:45:19;;;;;;;16.30;11.13;;;;;;;13.14;81.35;100789.22;4986024;28;20080;-77
2021/07/01 02:47:44;;;;;;;19.10;11.40;;;;;;;13.15;81.74;100790.91;5009057;28;20427;-76
2021/07/01 02:50:10;;;;;;;16.80;10.98;;;;;;;13.12;81.60;100782.31;5009704;28;20025;-77
2021/07/01 02:52:36;;;;;;;15.75;10.88;;;;;;;13.12;81.55;100783.16;5017901;28;20080;-77
2021/07/01 02:55:03;;;;;;;19.77;10.95;;;;;;;13.07;81.54;100780.44;4996350;28;20030;-76
2021/07/01 02:57:28;;;;;;;18.35;10.93;;;;;;;13.05;81.93;100777.13;4994080;28;20025;-77
2021/07/01 02:59:54;;;;;;;16.25;11.00;;;;;;;13.05;81.51;100781.88;5000440;28;20462;-77
2021/07/01 03:02:19;;;;;;;14.48;9.68;;;;;;;13.01;81.47;100784.47;5001806;28;20493;-77
2021/07/01 03:04:45;;;;;;;13.07;9.32;;;;;;;13.02;81.37;100782.50;4984350;28;20030;-76
2021/07/01 03:07:10;;;;;;;13.27;9.45;;;;;;;12.95;81.52;100780.94;4994590;28;20494;-77
2021/07/01 03:09:36;;;;;;;13.23;9.38;;;;;;;12.97;81.49;100781.44;5002427;28;20030;-76
2021/07/01 03:12:01;;;;;;;12.77;9.40;;;;;;;12.91;81.43;100779.03;5002195;28;20069;-77
2021/07/01 03:14:27;;;;;;;12.95;9.68;;;;;;;12.89;81.38;100781.28;4996058;28;20084;-76
2021/07/01 03:16:52;;;;;;;13.77;9.35;;;;;;;12.88;81.31;100783.25;4998787;28;20520;-76
2021/07/01 03:19:18;;;;;;;15.25;9.60;;;;;;;12.86;81.41;100779.13;4994760;28;20376;-76
2021/07/01 03:21:43;;;;;;;14.40;8.95;;;;;;;12.81;81.49;100784.75;5013519;28;20451;-76
2021/07/01 03:24:08;;;;;;;13.52;9.25;;;;;;;12.79;81.26;100775.88;4995641;28;20034;-77
2021/07/01 03:26:34;;;;;;;14.55;8.93;;;;;;;12.73;81.73;100775.97;4999931;28;20022;-76
2021/07/01 03:28:59;;;;;;;13.75;8.82;;;;;;;12.73;81.51;100781.53;4998393;28;20034;-76
2021/07/01 03:31:25;;;;;;;13.30;9.23;;;;;;;12.68;81.53;100778.00;4990692;28;20034;-77
2021/07/01 03:33:51;;;;;;;11.57;7.95;;;;;;;12.66;81.78;100781.09;5001709;28;20029;-76
2021/07/01 03:36:16;;;;;;;13.90;8.90;;;;;;;12.64;81.80;100780.53;5010759;28;20026;-76
2021/07/01 03:38:42;;;;;;;13.10;9.05;;;;;;;12.63;81.47;100784.47;4999560;28;20031;-77
2021/07/01 03:41:07;;;;;;;13.00;8.98;;;;;;;12.61;81.57;100783.94;4994855;28;20045;-76
2021/07/01 03:43:36;;;;;;;14.20;8.48;;;;;;;12.57;81.58;100780.13;4975969;28;20026;-76
2021/07/01 03:46:02;;;;;;;12.52;8.52;;;;;;;12.56;81.86;100774.81;4996023;28;20030;-76
2021/07/01 03:48:28;;;;;;;12.73;8.82;;;;;;;12.51;81.70;100775.75;5001476;28;20029;-76
2021/07/01 03:50:53;;;;;;;12.07;8.65;;;;;;;12.50;81.78;100774.06;4981664;28;20061;-76
2021/07/01 03:53:19;;;;;;;16.65;8.95;;;;;;;12.46;81.90;100773.03;4940722;28;20027;-76
2021/07/01 03:55:44;;;;;;;10.98;8.23;;;;;;;12.44;81.84;100778.06;4983070;28;20038;-76
2021/07/01 03:58:10;;;;;;;10.82;8.20;;;;;;;12.38;81.85;100776.50;4989036;28;20372;-76
2021/07/01 04:00:36;;;;;;;14.70;9.05;;;;;;;12.37;81.78;100772.03;4984664;28;20387;-76
2021/07/01 04:03:01;;;;;;;12.48;8.77;;;;;;;12.34;82.21;100773.47;4985015;28;20083;-76
2021/07/01 04:05:27;;;;;;;11.25;7.97;;;;;;;12.26;82.35;100772.19;4975898;28;20018;-76
2021/07/01 04:07:52;;;;;;;10.40;7.93;;;;;;;12.26;82.46;100772.19;4968332;28;20022;-76
2021/07/01 04:10:18;;;;;;;10.63;7.65;;;;;;;12.24;82.36;100773.59;4982644;28;20442;-76
2021/07/01 04:12:44;;;;;;;10.85;8.13;;;;;;;12.22;82.37;100775.84;4984957;28;20057;-76
2021/07/01 04:15:10;;;;;;;9.95;7.82;;;;;;;12.22;82.04;100773.91;4981386;28;20030;-76
2021/07/01 04:17:36;;;;;;;9.35;7.50;;;;;;;12.17;82.21;100771.16;4981952;28;20423;-76
2021/07/01 04:20:02;;;;;;;10.10;7.85;;;;;;;12.18;82.24;100777.59;4995359;28;20038;-76
2021/07/01 04:22:28;;;;;;;9.32;7.45;;;;;;;12.15;82.31;100780.97;5000793;28;20382;-76
2021/07/01 04:24:53;;;;;;;9.93;7.65;;;;;;;12.14;82.11;100782.09;4972451;28;20034;-76
2021/07/01 04:27:19;;;;;;;9.32;7.82;;;;;;;12.12;82.15;100781.53;4984608;28;20034;-76
2021/07/01 04:29:45;;;;;;;9.38;7.38;;;;;;;12.11;82.39;100780.72;4984288;28;20022;-76
2021/07/01 04:32:10;;;;;;;9.52;6.97;;;;;;;12.10;82.02;100776.28;5000615;28;20045;-76
2021/07/01 04:34:36;;;;;;;8.73;6.65;;;;;;;12.09;82.32;100777.44;5018052;28;20034;-76
2021/07/01 04:37:03;;;;;;;9.93;7.25;;;;;;;12.12;82.62;100776.84;5008843;28;20038;-76
2021/07/01 04:39:28;;;;;;;8.80;6.97;;;;;;;12.12;83.16;100782.41;4986710;28;20030;-76
2021/07/01 04:41:54;;;;;;;10.05;7.82;;;;;;;12.13;83.08;100770.13;4962526;28;20029;-77
2021/07/01 04:44:19;;;;;;;11.55;8.13;;;;;;;12.12;83.82;100782.41;4997126;28;20049;-76
2021/07/01 04:46:45;;;;;;;11.77;8.45;;;;;;;12.18;83.82;100772.03;4974974;28;20483;-76
2021/07/01 04:49:10;;;;;;;9.82;8.07;;;;;;;12.22;84.00;100775.84;4964595;28;20382;-69
2021/07/01 04:51:36;;;;;;;9.90;7.35;;;;;;;12.38;84.34;100773.69;5008247;28;20069;-69
2021/07/01 04:54:01;;;;;;;9.68;7.38;;;;;;;12.49;85.03;100780.78;4996818;28;20471;-70
2021/07/01 04:56:43;;;;;;;11.82;8.02;;;;;;;12.63;86.10;100787.25;4999972;28;20056;-70
2021/07/01 04:59:11;;;;;;;10.43;7.80;;;;;;;12.78;86.18;100793.72;5000446;28;20454;-70
2021/07/01 05:01:37;;;;;;;12.48;8.57;;;;;;;12.89;85.38;100795.22;4997155;28;20479;-70
2021/07/01 05:04:03;;;;;;;13.45;9.02;;;;;;;13.03;85.50;100787.75;4975708;28;20144;-70
2021/07/01 05:06:29;;;;;;;12.38;9.35;;;;;;;13.09;85.49;100791.28;4993588;28;20056;-70
2021/07/01 05:08:54;;;;;;;13.63;8.63;;;;;;;13.19;84.90;100791.94;4984403;28;20026;-70
2021/07/01 05:11:20;;;;;;;14.95;8.93;;;;;;;13.27;84.85;100792.41;4983548;28;20037;-70
2021/07/01 05:13:46;;;;;;;13.35;9.57;;;;;;;13.36;84.07;100794.19;4978804;28;20049;-70
2021/07/01 05:16:11;;;;;;;13.90;9.23;;;;;;;13.40;84.32;100794.44;4976378;28;20395;-70
2021/07/01 05:18:37;;;;;;;11.98;8.88;;;;;;;13.50;83.99;100797.00;4945909;28;20467;-70
2021/07/01 05:21:02;;;;;;;11.05;8.85;;;;;;;13.52;83.63;100788.34;4979789;28;20542;-70
2021/07/01 05:23:28;;;;;;;11.65;8.82;;;;;;;13.61;83.40;100795.69;4981621;28;20494;-70
2021/07/01 05:25:53;;;;;;;11.80;8.40;;;;;;;13.66;83.42;100788.38;4983515;28;20037;-70
2021/07/01 05:28:19;;;;;;;9.18;7.60;;;;;;;13.73;83.31;100797.16;4977876;28;20033;-70
2021/07/01 05:30:44;;;;;;;10.63;8.57;;;;;;;13.76;83.26;100788.16;4983218;28;20022;-70
2021/07/01 05:33:10;;;;;;;9.55;7.82;;;;;;;13.80;83.91;100789.22;4983614;28;20029;-70
2021/07/01 05:35:35;;;;;;;8.82;7.82;;;;;;;13.84;84.28;100798.63;4972190;28;20030;-70
2021/07/01 05:38:01;;;;;;;11.27;8.50;;;;;;;13.89;84.03;100800.47;5000767;28;20034;-70
2021/07/01 05:40:26;;;;;;;14.43;11.30;;;;;;;13.91;84.43;100796.25;4971763;28;20022;-70
2021/07/01 05:42:52;;;;;;;12.90;9.95;;;;;;;13.97;84.68;100797.78;4957783;28;20038;-70
2021/07/01 05:45:18;;;;;;;12.38;8.93;;;;;;;14.01;84.90;100804.44;4980944;28;20031;-70
2021/07/01 05:47:43;;;;;;;10.00;8.25;;;;;;;14.05;85.41;100796.25;4950267;28;20026;-70
2021/07/01 05:50:10;;;;;;;12.60;7.68;;;;;;;14.11;85.03;100799.78;4963970;28;20034;-70
2021/07/01 05:52:38;;;;;;;8.23;7.40;;;;;;;14.15;85.21;100798.00;4979912;28;20591;-70
2021/07/01 05:55:04;;;;;;;10.30;7.38;;;;;;;14.19;86.08;100801.84;4983319;28;20033;-70
2021/07/01 05:57:30;;;;;;;7.07;6.20;;;;;;;14.25;85.19;100795.00;4996129;28;20383;-70
2021/07/01 05:59:55;;;;;;;8.95;7.00;;;;;;;14.27;87.40;100796.34;4972250;28;20046;-70
2021/07/01 06:02:22;;;;;;;7.22;6.28;;;;;;;14.27;86.76;100798.31;4978611;28;20536;-70
2021/07/01 06:04:49;;;;;;;5.97;5.25;;;;;;;14.34;86.40;100798.69;4980159;28;20057;-70
2021/07/01 06:07:23;;;;;;;6.00;5.40;;;;;;;14.44;84.92;100806.88;4978817;28;20082;-70
2021/07/01 06:09:51;;;;;;;7.10;5.82;;;;;;;14.41;87.53;100807.50;4971082;28;20058;-70
2021/07/01 06:12:17;;;;;;;6.72;6.03;;;;;;;14.46;87.66;100810.19;4974312;28;20034;-68
2021/07/01 06:14:43;;;;;;;6.53;5.75;;;;;;;14.58;85.73;100806.06;4996444;28;20521;-71
2021/07/01 06:17:09;;;;;;;8.88;5.45;;;;;;;14.63;84.71;100808.75;4947729;28;20411;-71
2021/07/01 06:19:35;;;;;;;6.10;5.50;;;;;;;14.70;84.89;100812.75;4946744;28;20411;-71
2021/07/01 06:22:00;;;;;;;6.43;5.82;;;;;;;14.81;84.98;100812.50;4963431;28;20076;-71
2021/07/01 06:24:26;;;;;;;6.07;5.40;;;;;;;14.93;84.45;100810.84;4973083;28;20535;-71
2021/07/01 06:26:51;;;;;;;6.72;5.88;;;;;;;15.06;83.82;100816.69;4971221;28;20042;-71
2021/07/01 06:29:17;;;;;;;8.43;6.90;;;;;;;15.17;83.70;100809.69;4988697;28;20038;-71
2021/07/01 06:31:43;;;;;;;7.47;5.72;;;;;;;15.24;84.30;100817.63;4999606;28;20030;-70
2021/07/01 06:34:08;;;;;;;8.02;5.65;;;;;;;15.38;83.10;100812.81;4968372;28;20501;-70
2021/07/01 06:36:36;;;;;;;6.28;5.68;;;;;;;15.56;82.63;100813.72;4979423;28;20031;-70
2021/07/01 06:39:04;;;;;;;9.90;5.53;;;;;;;15.69;83.37;100810.06;4979348;28;20113;-71
2021/07/01 06:41:30;;;;;;;31.88;17.80;;;;;;;15.74;84.09;100811.88;4963306;28;20026;-71
2021/07/01 06:43:56;;;;;;;24.77;13.63;;;;;;;15.92;82.96;100812.81;4962966;28;20041;-71
2021/07/01 06:46:22;;;;;;;19.42;9.90;;;;;;;16.12;81.23;100812.22;4963184;28;20030;-71
2021/07/01 06:48:48;;;;;;;16.02;8.85;;;;;;;16.30;80.56;100810.31;4979280;28;20031;-71
2021/07/01 06:51:15;;;;;;;17.35;9.70;;;;;;;16.50;80.39;100814.47;4978885;28;20033;-71
2021/07/01 06:53:41;;;;;;;15.73;10.48;;;;;;;16.67;80.83;100820.09;4979250;28;20093;-71
2021/07/01 06:56:07;;;;;;;23.75;13.50;;;;;;;16.88;80.20;100819.50;4946664;28;20033;-72
2021/07/01 06:58:33;;;;;;;23.85;14.68;;;;;;;17.00;80.15;100830.06;4984392;28;20046;-72
2021/07/01 07:00:58;;;;;;;16.00;9.25;;;;;;;17.23;79.58;100825.09;4982320;28;20049;-72
2021/07/01 07:03:24;;;;;;;12.45;8.80;;;;;;;17.48;78.37;100821.44;4998167;28;20030;-72
2021/07/01 07:05:52;;;;;;;14.68;8.38;;;;;;;17.68;77.94;100819.09;4995370;28;20034;-72
2021/07/01 07:08:18;;;;;;;12.27;9.48;;;;;;;17.85;77.83;100817.06;4976743;28;20518;-72
2021/07/01 07:10:45;;;;;;;13.23;9.95;;;;;;;17.89;78.43;100822.84;4982237;28;20022;-72
2021/07/01 07:13:11;;;;;;;10.95;8.45;;;;;;;18.14;76.83;100823.09;4998377;28;20041;-72
2021/07/01 07:15:36;;;;;;;14.07;10.20;;;;;;;18.35;76.69;100814.69;4995056;28;20034;-72
2021/07/01 07:18:20;;;;;;;9.88;7.30;;;;;;;18.59;75.51;100819.69;4994916;28;20027;-72
2021/07/01 07:20:47;;;;;;;14.23;8.15;;;;;;;18.76;75.20;100825.22;4998358;28;20030;-72
2021/07/01 07:23:19;;;;;;;18.98;12.15;;;;;;;18.92;76.06;100829.09;4995183;28;20026;-72
2021/07/01 07:25:45;;;;;;;13.95;9.10;;;;;;;19.08;75.04;100822.81;4982727;28;20080;-72
2021/07/01 07:28:11;;;;;;;13.25;10.25;;;;;;;19.33;74.67;100830.22;4953078;28;20026;-72
2021/07/01 07:30:37;;;;;;;16.20;11.93;;;;;;;19.53;74.56;100838.97;4991948;28;20045;-72
2021/07/01 07:33:07;;;;;;;16.95;10.90;;;;;;;19.74;73.38;100836.97;4966443;28;20041;-72
2021/07/01 07:35:33;;;;;;;15.25;11.40;;;;;;;19.95;73.64;100836.09;4953287;28;20030;-72
2021/07/01 07:37:59;;;;;;;14.00;10.73;;;;;;;20.11;73.33;100831.38;4985652;28;20083;-72
2021/07/01 07:40:29;;;;;;;14.32;11.00;;;;;;;20.34;72.64;100836.56;4989863;28;20068;-72
2021/07/01 07:42:54;;;;;;;10.43;7.20;;;;;;;20.57;70.94;100840.59;4947559;28;20033;-72
2021/07/01 07:45:20;;;;;;;16.05;11.13;;;;;;;20.77;71.05;100837.97;4967455;28;20034;-72
2021/07/01 07:47:45;;;;;;;11.98;10.05;;;;;;;20.98;70.00;100831.00;4950146;28;20492;-72
2021/07/01 07:50:11;;;;;;;11.80;8.60;;;;;;;21.18;69.49;100832.00;4978564;28;20022;-72
2021/07/01 07:52:45;;;;;;;14.98;10.52;;;;;;;21.35;69.18;100830.88;4998344;28;20544;-72
2021/07/01 07:55:11;;;;;;;10.48;8.18;;;;;;;21.54;68.84;100823.75;4968937;28;20026;-72
2021/07/01 07:57:36;;;;;;;12.05;7.50;;;;;;;21.74;67.89;100827.53;4965975;28;20037;-72
2021/07/01 08:00:02;;;;;;;9.23;7.07;;;;;;;21.94;67.60;100829.28;4969408;28;20556;-70
2021/07/01 08:02:41;;;;;;;10.38;8.02;;;;;;;22.16;66.70;100824.19;4994546;28;20030;-74
2021/07/01 08:05:07;;;;;;;11.98;7.32;;;;;;;22.32;66.79;100825.03;4978349;28;20488;-72
2021/07/01 08:07:33;;;;;;;10.25;7.03;;;;;;;22.52;66.21;100821.06;4972869;28;20112;-72
2021/07/01 08:09:59;;;;;;;8.80;6.47;;;;;;;22.71;66.03;100816.66;4984267;28;20065;-73
2021/07/01 08:12:24;;;;;;;9.48;6.50;;;;;;;22.91;65.74;100812.66;4957367;28;20030;-73
2021/07/01 08:14:50;;;;;;;9.95;7.30;;;;;;;23.07;65.29;100812.63;4981346;28;20048;-73
2021/07/01 08:17:15;;;;;;;7.40;6.13;;;;;;;23.28;64.76;100811.44;4988757;28;20026;-73
2021/07/01 08:19:41;;;;;;;7.63;6.25;;;;;;;23.46;64.48;100815.44;4980828;28;20026;-73
2021/07/01 08:22:09;;;;;;;6.53;5.80;;;;;;;23.64;64.02;100810.13;4967057;28;20080;-73
2021/07/01 08:24:34;;;;;;;11.35;8.48;;;;;;;23.70;59.63;100805.78;4953444;28;20034;-73
2021/07/01 08:27:00;;;;;;;9.25;7.03;;;;;;;23.96;61.14;100807.06;4976749;28;20034;-73
2021/07/01 08:29:25;;;;;;;8.43;6.70;;;;;;;24.11;60.11;100808.16;4971773;28;20018;-73
2021/07/01 08:31:51;;;;;;;7.10;6.15;;;;;;;24.21;59.99;100814.00;4980955;28;20033;-73
2021/07/01 08:34:20;;;;;;;8.45;6.43;;;;;;;24.29;59.22;100812.09;5000471;28;20041;-72
2021/07/01 08:36:46;;;;;;;7.25;5.80;;;;;;;24.41;59.46;100819.59;4984264;28;20026;-73
2021/07/01 08:39:11;;;;;;;8.25;6.30;;;;;;;24.49;60.05;100816.53;4967880;28;20037;-72
2021/07/01 08:41:37;;;;;;;8.45;5.75;;;;;;;24.61;59.95;100818.31;5006931;28;20025;-72
2021/07/01 08:44:08;;;;;;;7.80;6.43;;;;;;;24.75;58.97;100820.56;4986570;28;20080;-73
2021/07/01 08:46:47;;;;;;;6.72;5.80;;;;;;;24.91;58.82;100807.00;4976510;28;20036;-72
2021/07/01 08:49:13;;;;;;;6.85;6.00;;;;;;;25.08;59.65;100808.44;4987450;28;20026;-72
2021/07/01 08:51:46;;;;;;;6.85;5.55;;;;;;;25.15;59.84;100817.06;5002258;28;20037;-72
2021/07/01 08:54:23;;;;;;;6.47;5.50;;;;;;;25.20;58.97;100818.75;4969565;28;20040;-70
2021/07/01 08:56:49;;;;;;;6.93;5.05;;;;;;;25.33;58.93;100813.66;4999209;28;20041;-70
2021/07/01 08:59:15;;;;;;;7.75;5.63;;;;;;;25.44;58.03;100822.31;4978244;28;20439;-70
2021/07/01 09:01:41;;;;;;;5.63;5.03;;;;;;;25.52;58.09;100813.47;4983838;28;20080;-70
2021/07/01 09:04:10;;;;;;;9.85;6.35;;;;;;;25.48;55.25;100809.75;4980570;28;20038;-70
2021/07/01 09:06:38;;;;;;;7.60;5.72;;;;;;;25.74;55.80;100813.69;4998699;28;20470;-71
2021/07/01 09:09:09;;;;;;;6.25;5.35;;;;;;;25.91;55.36;100813.09;4986573;28;20033;-70
2021/07/01 09:11:39;;;;;;;6.03;5.00;;;;;;;26.06;55.37;100814.84;4952093;28;20033;-71
2021/07/01 09:14:06;;;;;;;6.10;5.25;;;;;;;26.23;55.68;100818.25;4983137;28;20030;-71
2021/07/01 09:16:32;;;;;;;5.60;4.97;;;;;;;26.39;56.20;100815.94;4981956;28;20038;-70
2021/07/01 09:18:58;;;;;;;7.80;5.60;;;;;;;26.53;54.83;100815.25;4983540;28;20120;-70
2021/07/01 09:21:24;;;;;;;7.35;6.13;;;;;;;26.58;54.59;100808.34;4994926;28;20032;-70
2021/07/01 09:23:49;;;;;;;6.28;5.00;;;;;;;26.78;54.88;100809.72;4959362;28;20031;-70
2021/07/01 09:26:22;;;;;;;5.90;5.30;;;;;;;26.94;53.92;100818.78;4976740;28;20018;-70
2021/07/01 09:28:48;;;;;;;;;;;;;;;26.98;51.92;100801.69;4981013;28;20391;-70
2021/07/01 09:31:15;;;;;;;6.60;4.47;;;;;;;27.18;52.64;100797.31;4983649;28;19913;-71
2021/07/01 09:33:41;;;;;;;5.93;4.78;;;;;;;27.30;53.10;100807.56;4973750;28;20026;-71
2021/07/01 09:36:06;;;;;;;6.22;5.35;;;;;;;27.31;52.02;100792.09;4945209;28;20603;-70
2021/07/01 09:38:32;;;;;;;7.65;5.68;;;;;;;27.31;51.44;100796.97;4957265;28;20030;-70
2021/07/01 09:40:57;;;;;;;8.80;5.60;;;;;;;27.40;51.36;100798.22;4976575;28;20042;-70
2021/07/01 09:43:23;;;;;;;6.78;6.07;;;;;;;27.40;50.02;100800.25;4947375;28;20034;-70
2021/07/01 09:45:50;;;;;;;5.72;5.10;;;;;;;27.62;50.55;100804.00;4944986;28;20026;-70
2021/07/01 09:48:15;;;;;;;7.15;5.32;;;;;;;27.65;51.14;100799.50;4967476;28;20022;-70
2021/07/01 09:50:45;;;;;;;8.73;5.40;;;;;;;27.71;50.59;100798.69;4973453;28;20060;-70
2021/07/01 09:53:29;;;;;;;7.63;6.03;;;;;;;27.67;50.62;100792.19;4960381;28;20041;-70
2021/07/01 09:55:54;;;;;;;7.32;5.95;;;;;;;27.62;49.94;100792.56;4970265;28;20038;-70
2021/07/01 09:58:21;;;;;;;9.35;6.50;;;;;;;27.65;49.59;100790.97;4988670;28;20498;-70
2021/07/01 10:00:50;;;;;;;8.82;5.60;;;;;;;27.77;49.37;100799.94;4979850;28;20038;-70
2021/07/01 10:03:16;;;;;;;7.47;6.18;;;;;;;27.52;49.21;100796.22;4982630;28;20030;-70
2021/07/01 10:05:41;;;;;;;6.85;5.15;;;;;;;27.69;50.16;100797.47;4995845;28;20037;-70
2021/07/01 10:08:07;;;;;;;8.18;6.20;;;;;;;27.61;48.44;100800.31;4988178;28;20463;-70
2021/07/01 10:10:49;;;;;;;7.50;4.85;;;;;;;27.79;49.17;100802.38;4982866;28;20026;-70
2021/07/01 10:13:15;;;;;;;7.05;4.50;;;;;;;27.88;50.32;100797.13;4968352;28;20037;-70
2021/07/01 10:15:41;;;;;;;6.70;5.30;;;;;;;27.87;49.22;100794.69;4982617;28;20033;-70
2021/07/01 10:18:11;;;;;;;5.45;4.50;;;;;;;27.93;50.39;100795.91;4982809;28;20030;-70
2021/07/01 10:20:39;;;;;;;6.85;4.35;;;;;;;28.03;50.13;100792.25;4998817;28;20025;-70
2021/07/01 10:23:20;;;;;;;5.90;4.35;;;;;;;28.13;50.11;100791.44;4994544;28;20060;-70
2021/07/01 10:25:50;;;;;;;6.82;4.80;;;;;;;28.18;50.27;100793.88;4998864;28;20030;-70
2021/07/01 10:28:17;;;;;;;6.05;4.07;;;;;;;28.28;50.30;100795.94;4966991;28;20029;-70
2021/07/01 10:30:43;;;;;;;6.40;4.63;;;;;;;28.38;49.80;100791.41;4974840;28;20041;-70
2021/07/01 10:33:32;;;;;;;5.70;4.50;;;;;;;28.50;49.48;100793.06;4966597;28;20036;-70
2021/07/01 10:36:01;;;;;;;5.63;4.18;;;;;;;28.58;49.53;100794.69;4982300;28;20022;-70
2021/07/01 10:38:26;;;;;;;6.97;4.28;;;;;;;28.66;48.28;100795.50;4982308;28;20021;-70
2021/07/01 10:40:56;;;;;;;8.25;4.78;;;;;;;28.69;48.87;100789.75;4952032;28;20034;-70
2021/07/01 10:43:42;;;;;;;5.43;4.47;;;;;;;28.85;49.68;100785.66;4998538;28;20026;-70
2021/07/01 10:46:08;;;;;;;5.50;4.18;;;;;;;28.94;48.86;100780.28;4979165;28;20042;-70
2021/07/01 10:48:34;;;;;;;5.40;4.47;;;;;;;29.03;47.82;100780.72;4980830;28;20023;-70
2021/07/01 10:51:09;;;;;;;6.78;4.35;;;;;;;29.16;48.75;100778.19;4972169;28;20033;-70
2021/07/01 10:53:38;;;;;;;5.05;4.13;;;;;;;29.29;48.36;100778.56;4967208;28;20030;-70
2021/07/01 10:56:15;;;;;;;5.32;4.47;;;;;;;29.32;46.42;100774.88;5001182;28;20026;-70
2021/07/01 10:58:41;;;;;;;5.07;3.95;;;;;;;29.36;48.27;100772.78;4975152;28;20062;-70
2021/07/01 11:01:07;;;;;;;4.55;3.55;;;;;;;29.44;46.32;100768.66;4975927;28;20031;-70
2021/07/01 11:03:33;;;;;;;4.50;3.58;;;;;;;29.53;47.22;100768.19;4963133;28;20066;-70
2021/07/01 11:06:01;;;;;;;6.22;3.90;;;;;;;29.61;46.89;100770.63;4978850;28;20486;-70
2021/07/01 11:08:34;;;;;;;5.07;3.65;;;;;;;29.76;47.11;100770.53;4979308;28;20030;-72
2021/07/01 11:11:04;;;;;;;4.70;3.53;;;;;;;29.92;47.22;100767.97;4949636;28;20027;-72
2021/07/01 11:13:30;;;;;;;6.07;4.00;;;;;;;30.08;46.78;100766.59;4956696;28;20092;-72
2021/07/01 11:16:07;;;;;;;5.82;4.07;;;;;;;30.17;45.82;100764.06;4979572;28;20038;-72